Aruba, Aruba

3:58 AM AST on August 25, 2016 (GMT -0400)
Oranjestad-Reina Beatrix International | | Change Station

Elev 59 ft 12.50 °N, 70.02 °W | Updated 58 minutes ago

Partly Cloudy
Partly Cloudy
82 °F
Feels Like 92 °F
N
13
Wind Variable Wind from ENE

Today
High -- | Low -- °F
--% Chance of Precip.
Yesterday
High -- | Low -- °F
Precip. -- in
Pressure 29.77 in
Visibility 6.2 miles
Clouds Few 2000 ft
Heat Index 92 °F
Dew Point 79 °F
Humidity 89%
Rainfall 0.00 in
Snow Depth Not available.
6:29 AM 6:54 PM
Waning Gibbous, 48% visible
METAR TNCA 250700Z 07011KT 9999 FEW020 28/26 Q1008 A2979 NOSIG
Pressure 29.77 in
Visibility 6.2 miles
Clouds Few 2000 ft
Heat Index 92 °F
Dew Point 79 °F
Humidity 89%
Rainfall 0.00 in
Snow Depth Not available.
6:29 AM 6:54 PM
Waning Gibbous, 48% visible
METAR TNCA 250700Z 07011KT 9999 FEW020 28/26 Q1008 A2979 NOSIG

10-Day Weather Forecast

No radar image for this location.
×

Almanac

Astronomy

Aug. 25, 2016 Rise Set
Actual Time
Civil Twilight
Nautical Twilight
Astronomical Twilight
Moon
Length of Visible Light
Length of Day
Tomorrow will be .
, % of the Moon is Illuminated

Today's Extremes

Country Highs Country Lows

Community

WunderPhotos

Upload Photos

1,934,814 photos uploaded!

WunderBlog® & News

Nearby

Air Quality

  Air Quality AQ Index Pollutant
Not available.

Snow Depth

Station Depth Elevation

Earthquake Activity

City Distance Mag. Time & Date
Minimum magnitude displayed is 2.5.

Coastal Water Temperatures

Place Temperature

Stations

Nearby Weather Stations

Station Location Temp. Windchill Dew Point Humidity Wind Precip. Elev Updated Type